Time;durP1;ratioP1;P1;durP2;ratioP2;P2;SDS_P1;SDS_P2;PMS_P1;PMS_P2;Temp;Humidity;BMP_temperature;BMP_pressure;BME280_temperature;BME280_humidity;BME280_pressure;Samples;Min_cycle;Max_cycle;Signal;HPM_P1;HPM_P2
2022/07/21 00:00:18;;;;;;;9.32;8.32;;;21.10;94.10;;;;;;5075292;28;20072;-60
2022/07/21 00:02:44;;;;;;;8.93;8.00;;;21.10;94.20;;;;;;5072485;28;20419;-60
2022/07/21 00:05:09;;;;;;;9.38;8.48;;;21.10;94.20;;;;;;5073405;28;20031;-61
2022/07/21 00:07:35;;;;;;;10.02;9.02;;;21.10;94.10;;;;;;5069493;28;20033;-61
2022/07/21 00:10:01;;;;;;;10.45;9.15;;;21.10;94.50;;;;;;5072310;28;21338;-61
2022/07/21 00:12:26;;;;;;;8.95;8.05;;;21.00;94.20;;;;;;5075600;28;20024;-61
2022/07/21 00:14:52;;;;;;;10.40;9.35;;;21.00;94.20;;;;;;5081906;28;20024;-61
2022/07/21 00:17:17;;;;;;;10.63;8.48;;;21.00;94.30;;;;;;5084809;28;20028;-61
2022/07/21 00:19:43;;;;;;;10.43;9.25;;;21.00;94.30;;;;;;5079046;28;20038;-60
2022/07/21 00:22:08;;;;;;;9.90;8.90;;;21.00;94.40;;;;;;5077000;28;20024;-61
2022/07/21 00:24:34;;;;;;;11.60;10.50;;;21.00;94.40;;;;;;5077530;28;20475;-61
2022/07/21 00:26:59;;;;;;;13.65;12.07;;;21.00;94.50;;;;;;5077879;28;20035;-61
2022/07/21 00:29:25;;;;;;;10.82;9.73;;;21.00;94.90;;;;;;5075880;28;20507;-61
2022/07/21 00:31:51;;;;;;;11.30;10.10;;;20.90;95.00;;;;;;5073382;28;20052;-61
2022/07/21 00:34:16;;;;;;;11.07;9.98;;;20.80;95.10;;;;;;5073402;28;20078;-60
2022/07/21 00:36:42;;;;;;;11.02;9.43;;;20.90;95.10;;;;;;5071243;28;20032;-61
2022/07/21 00:39:07;;;;;;;12.43;10.48;;;20.90;95.10;;;;;;5068687;28;20411;-61
2022/07/21 00:41:34;;;;;;;11.30;10.10;;;20.80;95.10;;;;;;5072326;28;20024;-60
2022/07/21 00:43:59;;;;;;;10.50;9.45;;;20.80;95.30;;;;;;5073052;28;20116;-61
2022/07/21 00:46:25;;;;;;;10.35;9.35;;;20.80;95.40;;;;;;5076831;28;20107;-62
2022/07/21 00:48:51;;;;;;;10.30;9.27;;;20.80;95.30;;;;;;5081647;28;20396;-61
2022/07/21 00:51:16;;;;;;;11.63;10.05;;;20.80;95.20;;;;;;5079454;28;20396;-61
2022/07/21 00:53:42;;;;;;;13.07;10.68;;;20.80;95.20;;;;;;5076067;28;20028;-61
2022/07/21 00:56:08;;;;;;;11.68;10.48;;;20.80;95.70;;;;;;5075095;28;20029;-61
2022/07/21 00:58:34;;;;;;;11.85;10.65;;;20.70;95.40;;;;;;5075657;28;20555;-61
2022/07/21 01:00:59;;;;;;;11.52;10.43;;;20.70;95.60;;;;;;5074076;28;20020;-61
2022/07/21 01:03:25;;;;;;;14.15;11.05;;;20.60;95.70;;;;;;5089188;28;20442;-61
2022/07/21 01:05:51;;;;;;;13.25;11.95;;;20.50;95.80;;;;;;5068891;28;20028;-61
2022/07/21 01:08:18;;;;;;;13.70;11.13;;;20.50;96.00;;;;;;5068748;28;20355;-61
2022/07/21 01:10:47;;;;;;;13.43;11.52;;;20.50;96.20;;;;;;5069308;28;20496;-63
2022/07/21 01:13:13;;;;;;;11.65;10.43;;;20.50;96.30;;;;;;5079338;28;20073;-61
2022/07/21 01:15:38;;;;;;;13.05;11.73;;;20.40;96.50;;;;;;5080091;28;20024;-61
2022/07/21 01:18:04;;;;;;;13.93;11.55;;;20.40;96.50;;;;;;5080014;28;20100;-61
2022/07/21 01:20:37;;;;;;;13.60;12.18;;;20.40;96.80;;;;;;5078101;28;20036;-61
2022/07/21 01:23:03;;;;;;;13.60;12.20;;;20.30;97.00;;;;;;5072996;28;20036;-62
2022/07/21 01:25:28;;;;;;;13.60;12.20;;;20.30;97.40;;;;;;5076929;28;20035;-61
2022/07/21 01:27:54;;;;;;;15.75;14.15;;;20.20;97.80;;;;;;5071901;28;20103;-61
2022/07/21 01:30:19;;;;;;;17.27;15.02;;;20.20;98.20;;;;;;5073829;28;20554;-62
2022/07/21 01:32:45;;;;;;;16.35;14.75;;;20.10;98.50;;;;;;5071330;28;20047;-61
2022/07/21 01:35:14;;;;;;;15.35;13.75;;;20.00;98.80;;;;;;5070318;28;20028;-61
2022/07/21 01:37:44;;;;;;;15.95;13.40;;;20.00;98.90;;;;;;5069218;28;20035;-61
2022/07/21 01:42:56;;;;;;;15.57;14.07;;;19.90;99.40;;;;;;5082441;28;20556;-61
2022/07/21 01:45:22;;;;;;;16.88;15.07;;;19.80;99.70;;;;;;5078738;28;20039;-61
2022/07/21 01:47:48;;;;;;;16.13;14.45;;;19.80;99.90;;;;;;5078724;28;20031;-62
2022/07/21 01:50:14;;;;;;;16.15;14.55;;;19.70;99.90;;;;;;5074295;28;20024;-62
2022/07/21 01:52:40;;;;;;;16.45;14.80;;;19.60;99.90;;;;;;5075947;28;20426;-61
2022/07/21 01:55:06;;;;;;;17.23;15.43;;;19.60;99.90;;;;;;5074768;28;20019;-61
2022/07/21 01:57:32;;;;;;;16.58;14.63;;;19.50;99.90;;;;;;5072766;28;20107;-62
2022/07/21 01:59:57;;;;;;;16.17;14.48;;;19.50;99.90;;;;;;5072082;28;20123;-61
2022/07/21 02:02:23;;;;;;;13.65;11.95;;;19.50;99.90;;;;;;5067432;28;20452;-61
2022/07/21 02:04:48;;;;;;;15.70;13.65;;;19.50;99.90;;;;;;5071374;28;20025;-61
2022/07/21 02:07:14;;;;;;;16.48;14.77;;;19.50;99.90;;;;;;5069623;28;20408;-61
2022/07/21 02:09:40;;;;;;;16.75;15.05;;;19.50;99.90;;;;;;5078705;28;20495;-61
2022/07/21 02:12:06;;;;;;;15.63;13.55;;;19.40;99.90;;;;;;5080429;28;20020;-61
2022/07/21 02:14:32;;;;;;;15.40;13.30;;;19.40;99.90;;;;;;5081155;28;20020;-61
2022/07/21 02:16:57;;;;;;;12.65;11.35;;;19.40;99.90;;;;;;5079617;28;20411;-62
2022/07/21 02:19:23;;;;;;;11.20;10.10;;;19.40;99.90;;;;;;5075531;28;20043;-61
2022/07/21 02:21:48;;;;;;;13.30;11.88;;;19.40;99.90;;;;;;5075764;28;20020;-62
2022/07/21 02:24:14;;;;;;;14.35;12.85;;;19.40;99.90;;;;;;5072388;28;20031;-61
2022/07/21 02:26:40;;;;;;;15.20;13.70;;;19.40;99.90;;;;;;5072927;28;20102;-61
2022/07/21 02:29:05;;;;;;;18.10;15.52;;;19.30;99.90;;;;;;5070504;28;20490;-61
2022/07/21 02:31:33;;;;;;;16.10;14.45;;;19.30;99.90;;;;;;5070034;28;20028;-61
2022/07/21 02:33:58;;;;;;;18.08;16.30;;;19.30;99.90;;;;;;5070760;28;20024;-61
2022/07/21 02:36:24;;;;;;;17.77;15.95;;;19.30;99.90;;;;;;5070932;28;20082;-61
2022/07/21 02:38:50;;;;;;;16.38;14.65;;;19.20;99.90;;;;;;5074591;28;20063;-61
2022/07/21 02:41:16;;;;;;;17.58;15.65;;;19.20;99.90;;;;;;5079156;28;20051;-61
2022/07/21 02:43:41;;;;;;;17.73;15.90;;;19.20;99.90;;;;;;5086694;28;20067;-61
2022/07/21 02:46:07;;;;;;;15.93;14.18;;;19.20;99.90;;;;;;5081890;28;20037;-61
2022/07/21 02:48:33;;;;;;;16.90;15.10;;;19.20;99.90;;;;;;5078362;28;20594;-61
2022/07/21 02:50:58;;;;;;;19.20;16.42;;;19.20;99.90;;;;;;5077576;28;20027;-61
2022/07/21 02:53:24;;;;;;;18.65;16.80;;;19.20;99.90;;;;;;5079818;28;20548;-61
2022/07/21 02:55:52;;;;;;;16.65;14.98;;;19.10;99.90;;;;;;5078280;28;20044;-60
2022/07/21 02:58:26;;;;;;;16.38;14.68;;;19.10;99.90;;;;;;5075353;28;20170;-61
2022/07/21 03:00:57;;;;;;;16.95;15.15;;;19.10;99.90;;;;;;5075801;28;20033;-61
2022/07/21 03:03:25;;;;;;;15.95;14.27;;;19.10;99.90;;;;;;5074740;28;20043;-61
2022/07/21 03:05:50;;;;;;;21.45;15.00;;;19.10;99.90;;;;;;5070904;28;20028;-61
2022/07/21 03:08:17;;;;;;;16.88;15.18;;;19.10;99.90;;;;;;5077995;28;20028;-61
2022/07/21 03:10:42;;;;;;;16.85;14.82;;;19.00;99.90;;;;;;5084373;28;20089;-60
2022/07/21 03:13:08;;;;;;;16.40;14.65;;;19.00;99.90;;;;;;5084169;28;20033;-61
2022/07/21 03:15:35;;;;;;;17.02;15.30;;;19.00;99.90;;;;;;5079643;28;20089;-60
2022/07/21 03:18:01;;;;;;;16.70;15.05;;;19.10;99.90;;;;;;5080623;28;20066;-61
2022/07/21 03:20:29;;;;;;;19.17;16.50;;;19.00;99.90;;;;;;5080709;28;20051;-60
2022/07/21 03:22:54;;;;;;;19.02;16.80;;;19.00;99.90;;;;;;5079417;28;20468;-61
2022/07/21 03:25:20;;;;;;;19.80;16.05;;;19.00;99.90;;;;;;5075353;28;20050;-60
2022/07/21 03:27:47;;;;;;;19.42;17.33;;;18.90;99.90;;;;;;5075566;28;20040;-61
2022/07/21 03:30:14;;;;;;;19.45;16.48;;;18.90;99.90;;;;;;5075314;28;20070;-61
2022/07/21 03:32:40;;;;;;;18.83;16.85;;;18.90;99.90;;;;;;5073203;28;20060;-61
2022/07/21 03:35:07;;;;;;;20.55;17.88;;;18.90;99.90;;;;;;5070007;28;20051;-61
2022/07/21 03:37:39;;;;;;;17.33;15.52;;;18.90;99.90;;;;;;5070566;28;20063;-61
2022/07/21 03:40:05;;;;;;;20.10;18.00;;;18.90;99.90;;;;;;5081436;28;20036;-61
2022/07/21 03:42:30;;;;;;;20.63;18.20;;;18.90;99.90;;;;;;5081999;28;20563;-61
2022/07/21 03:44:56;;;;;;;21.33;19.13;;;18.90;99.90;;;;;;5076033;28;20119;-60
2022/07/21 03:47:21;;;;;;;21.50;18.63;;;18.90;99.90;;;;;;5083895;28;20030;-61
2022/07/21 03:49:47;;;;;;;23.13;20.30;;;18.80;99.90;;;;;;5079992;28;20037;-60
2022/07/21 03:52:12;;;;;;;21.65;19.30;;;18.80;99.90;;;;;;5073927;28;20373;-60
2022/07/21 03:54:38;;;;;;;23.15;19.48;;;18.80;99.90;;;;;;5076657;28;20055;-60
2022/07/21 03:57:04;;;;;;;21.10;18.85;;;18.80;99.90;;;;;;5077939;28;20020;-60
2022/07/21 03:59:29;;;;;;;22.27;19.25;;;18.90;99.90;;;;;;5074691;28;20075;-61
2022/07/21 04:01:55;;;;;;;21.55;18.13;;;18.90;99.90;;;;;;5073299;28;20028;-61
2022/07/21 04:04:20;;;;;;;21.33;18.83;;;18.90;99.90;;;;;;5069612;28;20052;-61
2022/07/21 04:06:46;;;;;;;21.40;18.70;;;18.90;99.90;;;;;;5070167;28;20459;-60
2022/07/21 04:09:11;;;;;;;21.95;19.55;;;18.90;99.90;;;;;;5075006;28;20487;-60
2022/07/21 04:11:37;;;;;;;21.27;19.00;;;18.90;99.90;;;;;;5080825;28;20039;-61
2022/07/21 04:14:02;;;;;;;21.10;18.88;;;18.90;99.90;;;;;;5084590;28;20515;-61
2022/07/21 04:16:28;;;;;;;21.08;18.65;;;18.90;99.90;;;;;;5076765;28;20116;-60
2022/07/21 04:18:53;;;;;;;20.77;18.58;;;18.90;99.90;;;;;;5076431;28;20035;-61
2022/07/21 04:21:19;;;;;;;23.83;19.45;;;18.90;99.90;;;;;;5077308;28;20480;-61
2022/07/21 04:23:44;;;;;;;24.98;19.95;;;18.90;99.90;;;;;;5075923;28;20084;-61
2022/07/21 04:26:39;;;;;;;22.95;20.30;;;18.90;99.90;;;;;;5073324;28;20108;-61
2022/07/21 04:29:04;;;;;;;23.45;19.15;;;18.90;99.90;;;;;;5072135;28;20029;-60
2022/07/21 04:31:30;;;;;;;22.02;19.48;;;18.90;99.90;;;;;;5070163;28;20431;-61
2022/07/21 04:33:55;;;;;;;24.70;21.80;;;18.90;99.90;;;;;;5071544;28;20032;-60
2022/07/21 04:36:21;;;;;;;23.85;20.48;;;18.90;99.90;;;;;;5067782;28;20035;-60
2022/07/21 04:38:48;;;;;;;24.73;21.25;;;18.80;99.90;;;;;;5066041;28;20032;-60
2022/07/21 04:41:13;;;;;;;27.17;21.65;;;18.80;99.90;;;;;;5078074;28;20028;-61
2022/07/21 04:43:39;;;;;;;24.80;22.05;;;18.80;99.90;;;;;;5080968;28;20043;-61
2022/07/21 04:46:04;;;;;;;28.23;22.90;;;18.90;99.90;;;;;;5076256;28;20054;-60
2022/07/21 04:48:38;;;;;;;25.02;21.48;;;18.90;99.90;;;;;;5075068;28;20095;-60
2022/07/21 04:51:03;;;;;;;25.50;21.63;;;18.90;99.90;;;;;;5075043;28;20480;-60
2022/07/21 04:53:29;;;;;;;26.70;20.88;;;18.90;99.90;;;;;;5075090;28;20035;-61
2022/07/21 04:55:54;;;;;;;26.55;22.48;;;18.90;99.90;;;;;;5072731;28;20033;-60
2022/07/21 05:01:29;;;;;;;27.08;23.90;;;18.90;99.90;;;;;;5068245;28;20048;-60
2022/07/21 05:03:54;;;;;;;25.75;22.65;;;18.80;99.90;;;;;;5072388;28;20028;-60
2022/07/21 05:06:20;;;;;;;27.35;20.65;;;18.80;99.90;;;;;;5074462;28;20028;-61
2022/07/21 05:08:45;;;;;;;25.75;21.70;;;18.80;99.90;;;;;;5083147;28;20066;-61
2022/07/21 05:11:11;;;;;;;25.25;20.98;;;18.90;99.90;;;;;;5081671;28;20024;-61
2022/07/21 05:13:36;;;;;;;26.38;21.55;;;18.90;99.90;;;;;;5077808;28;20028;-61
2022/07/21 05:16:02;;;;;;;32.88;22.77;;;18.90;99.90;;;;;;5083045;28;20032;-61
2022/07/21 05:18:27;;;;;;;25.50;21.30;;;18.90;99.90;;;;;;5079288;28;20025;-61
2022/07/21 05:20:53;;;;;;;25.15;21.55;;;18.90;99.90;;;;;;5086369;28;20506;-61
2022/07/21 05:23:18;;;;;;;26.52;21.60;;;18.90;99.90;;;;;;5077433;28;20020;-61
2022/07/21 05:25:44;;;;;;;23.60;20.25;;;18.90;99.90;;;;;;5079834;28;20336;-61
2022/07/21 05:28:09;;;;;;;23.38;20.83;;;19.00;99.90;;;;;;5077173;28;20024;-61
2022/07/21 05:30:35;;;;;;;19.35;17.17;;;18.90;99.90;;;;;;5080358;28;20017;-61
2022/07/21 05:33:01;;;;;;;25.08;21.48;;;19.00;99.90;;;;;;5086349;28;20468;-61
2022/07/21 05:35:27;;;;;;;25.90;17.83;;;19.00;99.90;;;;;;5093429;28;20035;-61
2022/07/21 05:37:53;;;;;;;20.27;18.05;;;19.10;99.90;;;;;;5082306;28;20044;-61
2022/07/21 05:40:18;;;;;;;20.27;18.17;;;19.10;99.90;;;;;;5084551;28;20028;-61
2022/07/21 05:42:44;;;;;;;20.60;17.00;;;19.10;99.90;;;;;;5084723;28;21434;-61
2022/07/21 05:45:10;;;;;;;22.02;17.90;;;19.10;99.90;;;;;;5075717;28;20023;-61
2022/07/21 05:47:36;;;;;;;19.38;17.30;;;19.10;99.90;;;;;;5084591;28;20048;-61
2022/07/21 05:50:02;;;;;;;24.98;19.42;;;19.20;99.90;;;;;;5078118;28;20512;-61
2022/07/21 05:52:27;;;;;;;17.90;15.95;;;19.20;99.90;;;;;;5077946;28;20031;-61
2022/07/21 05:54:53;;;;;;;16.58;14.70;;;19.20;99.90;;;;;;5068517;28;20028;-61
2022/07/21 05:57:19;;;;;;;20.52;16.27;;;19.20;99.90;;;;;;5078877;28;20474;-61
2022/07/21 05:59:45;;;;;;;20.70;17.20;;;19.20;99.90;;;;;;5081315;28;20127;-61
2022/07/21 06:02:11;;;;;;;21.58;17.10;;;19.20;99.90;;;;;;5082579;28;20023;-61
2022/07/21 06:04:36;;;;;;;16.13;12.85;;;19.20;99.90;;;;;;5077683;28;20025;-60
2022/07/21 06:07:02;;;;;;;22.35;19.10;;;19.30;99.90;;;;;;5070984;28;20500;-60
2022/07/21 06:09:28;;;;;;;23.63;18.17;;;19.30;99.90;;;;;;5082556;28;20081;-60
2022/07/21 06:11:53;;;;;;;23.75;18.20;;;19.30;99.90;;;;;;5080618;28;20075;-61
2022/07/21 06:14:19;;;;;;;22.40;16.50;;;19.30;99.90;;;;;;5078368;28;20120;-61
2022/07/21 06:16:44;;;;;;;15.43;13.85;;;19.30;99.90;;;;;;5085403;28;20090;-61
2022/07/21 06:19:10;;;;;;;18.30;15.63;;;19.30;99.90;;;;;;5085895;28;20077;-61
2022/07/21 06:21:36;;;;;;;20.00;17.02;;;19.30;99.90;;;;;;5087371;28;20396;-61
2022/07/21 06:24:01;;;;;;;21.13;17.17;;;19.30;99.90;;;;;;5088067;28;20376;-61
2022/07/21 06:26:27;;;;;;;19.00;16.20;;;19.30;99.90;;;;;;5083778;28;20025;-60
2022/07/21 06:28:54;;;;;;;21.65;17.50;;;19.40;99.90;;;;;;5085927;28;20492;-61
2022/07/21 06:31:19;;;;;;;20.77;16.90;;;19.40;99.90;;;;;;5100517;28;20024;-61
2022/07/21 06:33:45;;;;;;;24.75;17.25;;;19.40;99.90;;;;;;5081363;28;20089;-61
2022/07/21 06:36:11;;;;;;;19.73;17.42;;;19.40;99.90;;;;;;5079563;28;20024;-61
2022/07/21 06:38:36;;;;;;;22.42;17.77;;;19.40;99.90;;;;;;5073759;28;20031;-61
2022/07/21 06:41:03;;;;;;;21.98;17.67;;;19.40;99.90;;;;;;5076673;28;20024;-60
2022/07/21 06:43:28;;;;;;;22.17;18.35;;;19.50;99.90;;;;;;5085296;28;20028;-61
2022/07/21 06:45:54;;;;;;;25.55;19.50;;;19.40;99.90;;;;;;5079357;28;20028;-61
2022/07/21 06:48:21;;;;;;;25.15;19.38;;;19.50;99.90;;;;;;5085033;28;20036;-61
2022/07/21 06:50:47;;;;;;;26.52;20.55;;;19.50;99.90;;;;;;5083992;28;20028;-61
2022/07/21 06:53:13;;;;;;;24.13;19.90;;;19.50;99.90;;;;;;5082374;28;20540;-61
2022/07/21 06:55:40;;;;;;;28.80;22.38;;;19.60;99.90;;;;;;5079847;28;20532;-61
2022/07/21 06:58:24;;;;;;;26.02;19.48;;;19.60;99.90;;;;;;5084215;28;20071;-61
2022/07/21 07:00:50;;;;;;;28.58;23.00;;;19.70;99.90;;;;;;5072772;28;20028;-61
2022/07/21 07:03:17;;;;;;;27.00;21.92;;;19.70;99.90;;;;;;5087266;28;20027;-61
2022/07/21 07:05:44;;;;;;;30.42;22.13;;;19.70;99.90;;;;;;5077920;28;20485;-61
2022/07/21 07:08:11;;;;;;;31.30;24.17;;;19.70;99.90;;;;;;5085021;28;20035;-61
2022/07/21 07:10:37;;;;;;;29.60;22.75;;;19.70;99.90;;;;;;5082157;28;20135;-61
2022/07/21 07:13:03;;;;;;;30.17;22.83;;;19.70;99.90;;;;;;5086811;28;20028;-61
2022/07/21 07:15:29;;;;;;;30.00;23.48;;;19.90;99.90;;;;;;5084378;28;20502;-61
2022/07/21 07:17:55;;;;;;;26.20;21.88;;;19.80;99.90;;;;;;5076058;28;20540;-61
2022/07/21 07:20:21;;;;;;;23.00;20.42;;;19.90;99.90;;;;;;5079984;28;20029;-61
2022/07/21 07:22:46;;;;;;;26.70;21.85;;;19.90;99.90;;;;;;5066626;28;20025;-61
2022/07/21 07:25:16;;;;;;;25.42;20.60;;;19.90;99.90;;;;;;5073948;28;20028;-61
2022/07/21 07:27:42;;;;;;;25.27;19.23;;;20.00;99.90;;;;;;5078171;28;20025;-61
2022/07/21 07:30:08;;;;;;;25.70;20.17;;;19.90;99.90;;;;;;5074107;28;20040;-61
2022/07/21 07:32:34;;;;;;;33.97;24.73;;;20.00;99.90;;;;;;5068267;28;20036;-61
2022/07/21 07:34:59;;;;;;;26.30;22.38;;;20.00;99.90;;;;;;5073042;28;20025;-62
2022/07/21 07:37:25;;;;;;;27.00;21.13;;;19.90;99.90;;;;;;5073070;28;20085;-61
2022/07/21 07:39:50;;;;;;;25.92;21.63;;;19.90;99.90;;;;;;5069777;28;20087;-61
2022/07/21 07:42:16;;;;;;;23.30;19.13;;;19.90;99.90;;;;;;5074011;28;20066;-61
2022/07/21 07:44:41;;;;;;;24.73;20.13;;;19.90;99.90;;;;;;5070822;28;20021;-61
2022/07/21 07:47:07;;;;;;;31.27;24.65;;;19.90;99.90;;;;;;5067084;28;20070;-61
2022/07/21 07:49:32;;;;;;;23.08;17.58;;;19.90;99.90;;;;;;5074318;28;20301;-61
2022/07/21 07:52:02;;;;;;;33.83;23.30;;;20.00;99.90;;;;;;5072754;28;20028;-61
2022/07/21 07:54:28;;;;;;;23.77;19.95;;;20.00;99.90;;;;;;5074943;28;20028;-61
2022/07/21 07:56:53;;;;;;;32.10;23.23;;;20.00;99.90;;;;;;5076203;28;20031;-61
2022/07/21 07:59:19;;;;;;;23.60;20.98;;;20.00;99.90;;;;;;5069777;28;20119;-61
2022/07/21 08:01:44;;;;;;;26.70;20.67;;;20.00;99.90;;;;;;5073107;28;20063;-61
2022/07/21 08:04:43;;;;;;;24.30;20.05;;;20.00;99.90;;;;;;5070493;28;20024;-61
2022/07/21 08:07:09;;;;;;;31.40;22.52;;;20.00;99.90;;;;;;5067288;28;20021;-61
2022/07/21 08:09:34;;;;;;;23.08;19.95;;;19.90;99.90;;;;;;5088727;28;20043;-61
2022/07/21 08:12:00;;;;;;;29.10;22.80;;;20.00;99.90;;;;;;5085402;28;20050;-61
2022/07/21 08:14:47;;;;;;;;;;;;;;;;;;;;;
2022/07/21 08:17:12;;;;;;;26.02;19.38;;;20.00;99.90;;;;;;5069781;28;20028;-64
2022/07/21 08:19:38;;;;;;;28.45;21.80;;;20.00;99.90;;;;;;5070648;28;20124;-64
2022/07/21 08:22:03;;;;;;;30.58;22.25;;;20.00;99.90;;;;;;5068196;28;20031;-64
2022/07/21 08:24:29;;;;;;;29.77;21.73;;;20.00;99.90;;;;;;5063850;28;20479;-64
2022/07/21 08:26:55;;;;;;;25.50;20.10;;;20.00;99.90;;;;;;5072021;28;20052;-64
2022/07/21 08:29:20;;;;;;;27.38;21.58;;;20.00;99.90;;;;;;5074972;28;20020;-64
2022/07/21 08:31:46;;;;;;;27.20;21.30;;;20.00;99.90;;;;;;5093571;28;20032;-64
2022/07/21 08:34:11;;;;;;;27.23;20.63;;;20.00;99.90;;;;;;5081238;28;20077;-64
2022/07/21 08:36:37;;;;;;;24.00;18.90;;;20.00;99.90;;;;;;5072120;28;20029;-64
2022/07/21 08:39:03;;;;;;;22.92;18.52;;;20.00;99.90;;;;;;5053391;28;20025;-64
2022/07/21 08:41:31;;;;;;;26.65;18.75;;;20.00;99.90;;;;;;5053750;28;20094;-64
2022/07/21 08:43:56;;;;;;;22.30;17.20;;;20.10;99.90;;;;;;5054085;28;20029;-65
2022/07/21 08:46:23;;;;;;;23.83;17.75;;;20.00;99.90;;;;;;5069545;28;20548;-64
2022/07/21 08:48:49;;;;;;;26.27;18.67;;;20.00;99.90;;;;;;5069232;28;20021;-64
2022/07/21 08:51:16;;;;;;;22.70;17.95;;;20.00;99.90;;;;;;5075354;28;20104;-64
2022/07/21 08:53:46;;;;;;;21.05;16.17;;;19.90;99.90;;;;;;5077415;28;20017;-64
2022/07/21 08:59:06;;;;;;;18.25;12.45;;;19.80;99.90;;;;;;5060216;28;20056;-63
2022/07/21 09:01:33;;;;;;;14.95;12.43;;;19.60;99.90;;;;;;5076101;28;20417;-64
2022/07/21 09:04:19;;;;;;;13.18;10.73;;;19.60;99.90;;;;;;5065130;28;20032;-64
2022/07/21 09:06:54;;;;;;;13.30;11.13;;;19.60;99.90;;;;;;5064040;28;20028;-63
2022/07/21 09:09:21;;;;;;;15.45;11.07;;;19.50;99.90;;;;;;5067837;28;20488;-63
2022/07/21 09:11:47;;;;;;;15.63;11.48;;;19.40;99.90;;;;;;5064623;28;20139;-63
2022/07/21 09:14:18;;;;;;;9.82;7.97;;;19.40;99.90;;;;;;5067588;28;20581;-63
2022/07/21 09:16:47;;;;;;;11.77;9.38;;;19.40;99.90;;;;;;5068105;28;20063;-64
2022/07/21 09:19:24;;;;;;;9.93;7.53;;;19.40;99.90;;;;;;5064538;28;20150;-64
2022/07/21 09:21:52;;;;;;;10.25;8.00;;;19.40;99.90;;;;;;5063131;28;20153;-64
2022/07/21 09:24:25;;;;;;;8.82;7.50;;;19.40;99.90;;;;;;5064784;28;20480;-64
2022/07/21 09:27:00;;;;;;;7.75;6.95;;;19.40;99.90;;;;;;5066930;28;20028;-63
2022/07/21 09:29:26;;;;;;;8.35;6.93;;;19.40;99.90;;;;;;5065823;28;20017;-67
2022/07/21 09:31:51;;;;;;;7.47;6.60;;;19.40;99.90;;;;;;5066966;28;20021;-67
2022/07/21 09:34:20;;;;;;;7.50;5.82;;;19.30;99.90;;;;;;5069361;28;20069;-67
2022/07/21 09:36:57;;;;;;;7.65;6.75;;;19.40;99.90;;;;;;5060314;28;20021;-67
2022/07/21 09:39:55;;;;;;;8.57;6.82;;;19.50;99.90;;;;;;5081031;28;20028;-67
2022/07/21 09:42:41;;;;;;;7.43;6.70;;;19.40;99.90;;;;;;5071225;28;20056;-66
2022/07/21 09:45:12;;;;;;;8.02;6.80;;;19.40;99.90;;;;;;5066211;28;20519;-67
2022/07/21 09:47:40;;;;;;;8.35;7.55;;;19.50;99.90;;;;;;5057559;28;20400;-66
2022/07/21 09:50:08;;;;;;;8.52;7.18;;;19.40;99.90;;;;;;5058439;28;20026;-66
2022/07/21 09:52:36;;;;;;;8.93;7.78;;;19.40;99.90;;;;;;5070095;28;20055;-66
2022/07/21 09:55:12;;;;;;;7.55;6.55;;;19.40;99.90;;;;;;5065187;28;20078;-66
2022/07/21 09:57:38;;;;;;;10.35;7.35;;;19.30;99.90;;;;;;5055790;28;20507;-67
2022/07/21 10:00:09;;;;;;;8.50;7.60;;;19.30;99.90;;;;;;5066292;28;20147;-66
2022/07/21 10:02:35;;;;;;;8.07;7.28;;;19.30;99.90;;;;;;5060618;28;20028;-67
2022/07/21 10:05:05;;;;;;;9.20;8.30;;;19.30;99.90;;;;;;5057428;28;20025;-66
2022/07/21 10:07:33;;;;;;;7.50;6.80;;;19.30;99.90;;;;;;5065098;28;20028;-66
2022/07/21 10:09:59;;;;;;;7.68;6.88;;;19.30;99.90;;;;;;5062239;28;20023;-66
2022/07/21 10:12:26;;;;;;;8.48;7.55;;;19.30;99.90;;;;;;5065515;28;20016;-66
2022/07/21 10:14:52;;;;;;;8.20;7.10;;;19.30;99.90;;;;;;5067300;28;20020;-66
2022/07/21 10:17:40;;;;;;;;;;;;;;;;;;;;;
2022/07/21 10:20:21;;;;;;;5.85;5.30;;;19.40;99.90;;;;;;5062900;28;20040;-66
2022/07/21 10:23:26;;;;;;;7.03;6.32;;;19.50;99.90;;;;;;5063511;28;20044;-66
2022/07/21 10:25:52;;;;;;;6.63;6.03;;;19.60;99.90;;;;;;5055936;28;20071;-66
2022/07/21 10:28:27;;;;;;;6.22;5.30;;;19.60;99.90;;;;;;5057161;28;20110;-66
2022/07/21 10:30:54;;;;;;;5.28;4.72;;;19.70;99.90;;;;;;5063136;28;20128;-66
2022/07/21 10:33:41;;;;;;;4.93;4.32;;;19.80;99.90;;;;;;5066527;28;20051;-66
2022/07/21 10:36:31;;;;;;;4.35;3.70;;;19.80;99.90;;;;;;5065575;28;20100;-66
2022/07/21 10:39:31;;;;;;;5.13;4.63;;;19.90;99.90;;;;;;5070074;28;20032;-66
2022/07/21 10:41:59;;;;;;;5.88;4.65;;;19.90;99.90;;;;;;5061562;28;20029;-66
2022/07/21 10:44:27;;;;;;;4.07;3.63;;;19.90;99.90;;;;;;5067426;28;20017;-66
2022/07/21 10:47:20;;;;;;;5.63;5.03;;;19.90;99.90;;;;;;5071834;28;20150;-66
2022/07/21 10:49:51;;;;;;;5.47;4.18;;;19.90;99.90;;;;;;5059139;28;20043;-66
2022/07/21 10:52:34;;;;;;;4.30;3.90;;;19.90;99.90;;;;;;5069773;28;20028;-66
2022/07/21 10:55:26;;;;;;;4.88;3.70;;;20.00;99.90;;;;;;5069890;28;20021;-66
2022/07/21 10:58:24;;;;;;;5.45;4.95;;;20.10;99.90;;;;;;5071998;28;20436;-66
2022/07/21 11:00:52;;;;;;;4.97;4.45;;;20.00;99.90;;;;;;5049769;28;20044;-67
2022/07/21 11:03:21;;;;;;;5.28;4.78;;;19.90;99.90;;;;;;5068158;28;20079;-66
2022/07/21 11:06:05;;;;;;;5.22;4.70;;;20.00;99.90;;;;;;5068089;28;20558;-66
2022/07/21 11:08:32;;;;;;;7.35;5.78;;;20.00;99.90;;;;;;5060059;28;20020;-66
2022/07/21 11:11:17;;;;;;;7.35;5.78;;;20.00;99.90;;;;;;5062237;28;20024;-66
2022/07/21 11:14:04;;;;;;;6.47;5.40;;;20.00;99.90;;;;;;5062074;28;20103;-66
2022/07/21 11:16:46;;;;;;;6.25;5.65;;;20.10;99.90;;;;;;5065703;28;20018;-66
2022/07/21 11:19:52;;;;;;;;;;;;;;;;;;;;;
2022/07/21 11:25:43;;;;;;;5.78;5.18;;;20.20;99.90;;;;;;5066023;28;20036;-66
2022/07/21 11:28:17;;;;;;;6.80;5.03;;;20.10;99.90;;;;;;5064581;28;20025;-66
2022/07/21 11:30:43;;;;;;;5.05;4.63;;;20.20;99.90;;;;;;5059624;28;20144;-66
2022/07/21 11:33:08;;;;;;;6.07;4.88;;;20.10;99.90;;;;;;5067154;28;20103;-66
2022/07/21 11:35:37;;;;;;;6.93;4.65;;;20.20;99.90;;;;;;5057698;28;20031;-66
2022/07/21 11:38:04;;;;;;;6.10;4.50;;;20.30;99.90;;;;;;5067375;28;20404;-66
2022/07/21 11:40:29;;;;;;;4.38;3.42;;;20.30;99.90;;;;;;5063105;28;20048;-66
2022/07/21 11:42:55;;;;;;;7.03;4.43;;;20.40;99.90;;;;;;5060636;28;20113;-66
2022/07/21 11:45:25;;;;;;;6.43;4.78;;;20.50;99.90;;;;;;5056594;28;20074;-66
2022/07/21 11:47:52;;;;;;;5.18;4.20;;;20.50;99.90;;;;;;5056284;28;20033;-66
2022/07/21 11:50:18;;;;;;;4.88;4.05;;;20.60;99.90;;;;;;5064924;28;20035;-66
2022/07/21 11:52:44;;;;;;;6.88;4.75;;;20.60;99.90;;;;;;5061692;28;20107;-66
2022/07/21 11:55:12;;;;;;;6.35;4.30;;;20.60;99.90;;;;;;5062775;28;20020;-66
2022/07/21 11:57:42;;;;;;;7.10;6.05;;;20.60;99.90;;;;;;5065047;28;20020;-66
2022/07/21 12:00:08;;;;;;;5.07;4.10;;;20.60;99.90;;;;;;5077315;28;20405;-66
2022/07/21 12:02:34;;;;;;;4.72;3.95;;;20.50;99.90;;;;;;5070377;28;20107;-66
2022/07/21 12:05:03;;;;;;;4.75;3.83;;;20.50;99.90;;;;;;5058091;28;20053;-66
2022/07/21 12:07:34;;;;;;;7.75;4.75;;;20.60;99.90;;;;;;5070044;28;20020;-66
2022/07/21 12:10:03;;;;;;;6.32;4.80;;;20.60;99.90;;;;;;5066685;28;20079;-66
2022/07/21 12:12:46;;;;;;;6.53;4.55;;;20.50;99.90;;;;;;5061543;28;20024;-66
2022/07/21 12:15:23;;;;;;;5.85;4.75;;;20.50;99.90;;;;;;5058352;28;20021;-66
2022/07/21 12:17:57;;;;;;;7.30;5.35;;;20.40;99.90;;;;;;5059532;28;20029;-66
2022/07/21 12:20:34;;;;;;;10.50;6.70;;;20.40;99.90;;;;;;5061732;28;20111;-66
2022/07/21 12:23:02;;;;;;;7.43;6.22;;;20.40;99.90;;;;;;5073095;28;20021;-66
2022/07/21 12:25:32;;;;;;;8.32;7.05;;;20.40;99.90;;;;;;5088132;28;20531;-66
2022/07/21 12:27:57;;;;;;;9.23;8.10;;;20.40;99.90;;;;;;5073760;28;20024;-66
2022/07/21 12:30:42;;;;;;;8.60;7.70;;;20.50;99.90;;;;;;5067520;28;20477;-66
2022/07/21 12:33:09;;;;;;;7.60;6.80;;;20.50;99.90;;;;;;5063859;28;20553;-66
2022/07/21 12:35:36;;;;;;;6.93;6.22;;;20.50;99.90;;;;;;5061917;28;20032;-66
2022/07/21 12:38:09;;;;;;;7.15;6.45;;;20.40;99.90;;;;;;5068055;28;20025;-66
2022/07/21 12:40:36;;;;;;;8.57;7.00;;;20.40;99.90;;;;;;5070637;28;20021;-66
2022/07/21 12:43:12;;;;;;;6.63;5.93;;;20.40;99.90;;;;;;5070835;28;20024;-66
2022/07/21 12:46:11;;;;;;;7.22;6.53;;;20.40;99.90;;;;;;5061539;28;20077;-66
2022/07/21 12:48:38;;;;;;;6.32;5.72;;;20.40;99.90;;;;;;5056834;28;20032;-66
2022/07/21 12:51:10;;;;;;;6.95;6.25;;;20.30;99.90;;;;;;5071535;28;20031;-66
2022/07/21 12:53:54;;;;;;;5.18;4.60;;;20.20;99.90;;;;;;5060601;28;20013;-66